Latest Weather Observations for Glen Innes Airport

IDN60801

Issued at 5:03 pm EST Saturday 23 May 2015 (issued every 30 minutes, with the page automatically refreshed every 10 minutes)

About weather observations | Map of weather stations | Latest weather observations for NSW | Other Formats
Station Details ID: 056243 Name: GLEN INNES AIRPORT AWS Lat: -29.68 Lon: 151.69 Height: 1044.3 m
Data from the previous 72 hours. | See also: Recent months for locations in New South Wales
Date/Time
EST
Temp
°C
App
Temp
°C
Dew
Point
Rel
Hum
%
Delta-T
°C
Wind Press
QNH
hPa
Press
MSL
hPa
Rain
since 9 am
mm
Dir
 
Spd
km/h
Gust
km/h
Spd
kts
Gust
kts
23/05:00pm 9.6 6.1 3.4 65 2.8 ESE 11 13 6 7 1027.2 1026.4 0.0
23/04:30pm 11.6 7.8 4.1 60 3.6 E 13 13 7 7 1027.0 1026.2 0.0
23/04:00pm 12.0 6.9 3.0 54 4.2 SE 19 24 10 13 1026.8 1026.0 0.0
23/03:30pm 12.9 7.6 3.0 51 4.7 SE 20 28 11 15 1026.6 1025.8 0.0
23/03:00pm 13.4 8.1 3.2 50 4.8 SE 20 28 11 15 1026.4 1025.5 0.0
23/02:30pm 13.7 8.7 4.6 54 4.5 SE 20 28 11 15 1026.2 1025.4 0.0
23/02:00pm 13.8 8.8 4.4 53 4.6 SE 20 30 11 16 1026.0 1025.2 0.0
23/01:30pm 13.4 7.5 3.8 52 4.6 ESE 24 35 13 19 1026.1 1025.3 0.0
23/01:00pm 13.4 6.6 2.9 49 4.9 SE 28 35 15 19 1026.1 1025.3 0.0
23/12:30pm 13.4 7.2 4.3 54 4.4 SE 26 35 14 19 1026.1 1025.3 0.0
23/12:00pm 13.2 5.7 4.4 55 4.3 ESE 33 41 18 22 1026.1 1025.3 0.0
23/11:30am 12.8 5.4 5.2 60 3.7 SE 33 48 18 26 1026.2 1025.4 0.0
23/11:00am 11.9 3.2 4.2 59 3.7 SE 39 46 21 25 1026.2 1025.4 0.0
23/10:30am 11.7 2.2 4.0 59 3.7 ESE 43 56 23 30 1026.5 1025.6 0.0
23/10:00am 11.3 1.8 4.1 61 3.4 ESE 43 56 23 30 1026.4 1025.5 0.0
23/09:30am 10.3 1.7 4.5 67 2.8 ESE 39 50 21 27 1026.2 1025.4 0.0
23/09:00am 9.9 1.2 4.1 67 2.7 SE 39 52 21 28 1026.1 1025.3 0.4
23/08:30am 9.3 1.1 4.7 73 2.2 ESE 37 46 20 25 1025.7 1024.8 0.4
23/08:00am 8.2 -0.2 3.5 72 2.1 SE 37 48 20 26 1025.0 1024.2 0.4
23/07:30am 7.6 -0.5 3.3 74 1.9 ESE 35 48 19 26 1024.8 1023.9 0.4
23/07:00am 7.2 -0.5 3.3 76 1.8 SE 33 44 18 24 1024.3 1023.4 0.4
23/06:30am 6.5 0.1 3.3 80 1.4 SE 26 39 14 21 1023.6 1022.7 0.4
23/06:00am 6.8 -0.3 3.4 79 1.5 SE 30 39 16 21 1023.0 1022.1 0.4
23/05:30am 6.9 -1.5 3.5 79 1.5 SE 37 46 20 25 1022.5 1021.6 0.4
23/05:00am 6.9 -0.5 3.9 81 1.4 SE 32 39 17 21 1022.3 1021.3 0.4
23/04:30am 7.2 -0.4 3.8 79 1.6 SE 33 50 18 27 1022.0 1021.1 0.4
23/04:05am 7.0 -1.1 3.4 78 1.6 SE 35 54 19 29 1021.8 1020.9 0.4
23/04:00am 7.1 -1.8 3.3 77 1.7 SE 39 54 21 29 1021.7 1020.8 0.4
23/03:30am 7.4 -1.8 3.5 76 1.8 SE 41 54 22 29 1022.0 1021.1 0.4
23/03:00am 7.2 -0.9 3.4 77 1.7 SE 35 44 19 24 1022.2 1021.2 0.4
23/02:30am 6.9 -0.2 3.3 78 1.6 SE 30 35 16 19 1022.2 1021.2 0.4
23/02:00am 7.8 0.4 3.8 76 1.8 SE 32 43 17 23 1022.5 1021.6 0.4
23/01:31am 8.2 0.6 4.0 75 1.9 SE 33 52 18 28 1022.5 1021.6 0.4
23/01:30am 8.3 0.4 4.1 75 2.0 SE 35 52 19 28 1022.4 1021.4 0.4
23/01:27am 8.5 1.1 4.1 74 2.0 SE 32 52 17 28 1022.4 1021.4 0.4
23/01:00am 8.3 1.3 4.1 75 1.9 SE 30 41 16 22 1022.4 1021.4 0.4
23/12:30am 8.2 0.6 4.0 75 1.9 SE 33 44 18 24 1022.4 1021.4 0.4
23/12:00am 8.4 1.8 4.2 75 1.9 SSE 28 37 15 20 1022.4 1021.4 0.4
 
Date/Time
EST
Temp
°C
App
Temp
°C
Dew
Point
Rel
Hum
%
Delta-T
°C
Wind Press
QNH
hPa
Press
MSL
hPa
Rain
since 9 am
mm
Dir
 
Spd
km/h
Gust
km/h
Spd
kts
Gust
kts
22/11:30pm 8.3 3.4 4.9 79 1.6 SSE 20 26 11 14 1022.4 1021.4 0.4
22/11:00pm 8.3 2.3 5.1 80 1.5 SSE 26 37 14 20 1022.2 1021.2 0.4
22/10:30pm 8.5 1.8 5.6 82 1.4 SSE 30 37 16 20 1021.8 1020.9 0.4
22/10:00pm 8.8 2.5 5.5 80 1.6 S 28 41 15 22 1021.8 1020.9 0.4
22/09:30pm 8.9 4.3 5.8 81 1.5 SSW 19 30 10 16 1021.8 1020.9 0.4
22/09:00pm 8.8 4.2 5.7 81 1.5 S 19 26 10 14 1021.8 1020.9 0.4
22/08:30pm 8.7 4.5 5.8 82 1.4 SSW 17 22 9 12 1021.7 1020.8 0.4
22/08:00pm 8.9 4.1 5.6 80 1.6 SSW 20 28 11 15 1021.4 1020.4 0.4
22/07:30pm 8.5 3.9 5.4 81 1.5 SSW 19 28 10 15 1020.8 1019.9 0.4
22/07:00pm 8.4 3.8 5.5 82 1.4 SSW 19 28 10 15 1020.7 1019.7 0.4
22/06:30pm 8.4 3.2 5.5 82 1.4 SSW 22 33 12 18 1020.3 1019.3 0.4
22/06:00pm 8.3 3.2 5.9 85 1.2 SW 22 30 12 16 1019.9 1019.0 0.4
22/05:37pm 8.2 2.8 6.5 89 0.8 SW 24 33 13 18 1019.7 1018.7 0.4
22/05:30pm 8.2 3.3 6.7 90 0.7 SW 22 33 12 18 1019.5 1018.5 0.4
22/05:19pm 7.9 2.6 6.8 93 0.5 WSW 24 32 13 17 1019.5 1018.5 0.4
22/05:00pm 7.9 3.4 7.0 94 0.4 WSW 20 30 11 16 1019.5 1018.5 0.2
22/04:30pm 8.0 2.7 6.8 92 0.6 WSW 24 35 13 19 1019.2 1018.2 0.0
22/04:15pm 8.1 2.8 6.7 91 0.7 WSW 24 32 13 17 1019.1 1018.1 0.0
22/04:04pm 8.3 3.3 6.4 88 0.9 WSW 22 33 12 18 1018.9 1017.9 0.0
22/04:00pm 8.4 3.4 6.4 87 1.0 WSW 22 32 12 17 1018.9 1017.9 0.0
22/03:30pm 9.2 3.7 5.8 79 1.7 WSW 24 30 13 16 1018.4 1017.4 0.0
22/03:00pm 9.0 2.6 5.4 78 1.7 WSW 28 35 15 19 1018.3 1017.3 0.0
22/02:30pm 9.4 3.4 5.2 75 2.0 WSW 26 35 14 19 1018.1 1017.0 0.0
22/02:00pm 10.2 3.9 5.8 74 2.2 W 28 37 15 20 1017.3 1016.2 0.0
22/01:30pm 10.1 3.9 6.3 77 1.9 WSW 28 37 15 20 1017.5 1016.5 0.0
22/01:00pm 8.6 3.0 5.2 79 1.6 W 24 35 13 19 1017.7 1016.7 0.0
22/12:30pm 8.7 3.3 4.3 74 2.1 WSW 22 32 12 17 1017.9 1016.9 0.0
22/12:00pm 8.5 2.9 5.3 80 1.5 WSW 24 30 13 16 1018.1 1017.0 0.0
22/11:30am 7.6 0.8 4.9 83 1.3 WSW 30 39 16 21 1018.4 1017.4 0.0
22/11:23am 7.7 1.2 4.5 80 1.5 WSW 28 39 15 21 1018.5 1017.5 0.0
22/11:00am 7.6 1.9 4.7 82 1.4 WSW 24 32 13 17 1018.7 1017.7 0.0
22/10:30am 7.8 1.3 4.7 81 1.5 W 28 35 15 19 1018.8 1017.8 0.0
22/10:09am 7.2 1.0 4.5 83 1.3 WSW 26 33 14 18 1018.9 1017.9 0.0
22/10:00am 7.2 0.6 4.2 81 1.4 W 28 41 15 22 1018.9 1017.9 0.0
22/09:30am 8.0 2.3 4.9 81 1.5 W 24 35 13 19 1018.5 1017.5 0.0
22/09:14am 7.2 1.8 4.5 83 1.3 W 22 32 12 17 1018.4 1017.4 0.0
22/09:00am 7.5 1.3 4.5 81 1.4 W 26 32 14 17 1018.3 1017.3 11.0
22/08:52am 6.9 0.6 4.0 82 1.3 W 26 33 14 18 1018.3 1017.3 11.0
22/08:46am 7.3 2.0 4.8 84 1.2 WNW 22 32 12 17 1018.2 1017.1 11.0
22/08:30am 6.7 1.8 5.2 90 0.7 WNW 20 26 11 14 1018.2 1017.1 11.0
22/08:00am 5.8 0.8 4.4 91 0.6 WNW 20 26 11 14 1018.1 1017.0 11.0
22/07:41am 5.7 0.9 4.5 92 0.6 WNW 19 26 10 14 1017.8 1016.8 11.0
22/07:39am 5.7 0.8 4.3 91 0.6 WNW 19 26 10 14 1017.8 1016.8 11.0
22/07:30am 5.7 0.9 4.5 92 0.6 W 19 22 10 12 1017.8 1016.8 11.0
22/07:00am 5.8 2.1 4.6 92 0.6 W 13 19 7 10 1017.7 1016.7 11.0
22/06:30am 5.8 1.3 4.4 91 0.6 W 17 24 9 13 1017.5 1016.5 11.0
22/06:26am 5.8 1.3 4.4 91 0.6 W 17 24 9 13 1017.5 1016.5 11.0
22/06:23am 5.9 1.4 4.4 90 0.7 W 17 22 9 12 1017.5 1016.5 11.0
22/06:00am 5.9 1.1 4.7 92 0.6 W 19 26 10 14 1017.2 1016.1 11.0
22/05:39am 5.9 0.9 4.5 91 0.6 W 20 28 11 15 1016.8 1015.8 11.0
22/05:30am 6.0 0.2 4.5 90 0.7 W 24 37 13 20 1016.7 1015.7 11.0
22/05:00am 5.4 1.0 4.8 96 0.3 W 17 28 9 15 1016.6 1015.6 11.0
22/04:30am 5.6 2.6 4.1 90 0.7 W 9 11 5 6 1016.4 1015.3 11.0
22/04:00am 6.7 2.8 5.2 90 0.7 W 15 19 8 10 1016.7 1015.7 11.0
22/03:31am 7.1 2.3 5.6 90 0.7 W 20 26 11 14 1017.1 1016.0 11.0
22/03:30am 7.1 2.3 5.6 90 0.7 W 20 26 11 14 1017.1 1016.0 11.0
22/03:00am 7.8 2.1 6.7 93 0.5 WNW 26 37 14 20 1017.2 1016.1 11.0
22/02:30am 8.1 3.3 7.2 94 0.4 W 22 28 12 15 1017.4 1016.4 11.0
22/02:00am 8.4 4.0 7.5 94 0.5 WNW 20 26 11 14 1017.6 1016.6 10.8
22/01:43am 8.5 4.3 7.4 93 0.6 WNW 19 26 10 14 1017.8 1016.8 10.8
22/01:41am 8.5 4.3 7.4 93 0.6 WNW 19 26 10 14 1017.8 1016.8 10.8
22/01:30am 8.5 4.3 7.4 93 0.6 WNW 19 28 10 15 1017.9 1016.9 10.8
22/01:00am 8.7 4.0 7.6 93 0.6 WNW 22 32 12 17 1018.1 1017.0 10.8
22/12:30am 8.7 4.3 7.6 93 0.6 NW 20 26 11 14 1018.3 1017.3 10.8
22/12:00am 8.9 4.6 8.0 94 0.5 WNW 20 30 11 16 1018.6 1017.6 10.8
 
Date/Time
EST
Temp
°C
App
Temp
°C
Dew
Point
Rel
Hum
%
Delta-T
°C
Wind Press
QNH
hPa
Press
MSL
hPa
Rain
since 9 am
mm
Dir
 
Spd
km/h
Gust
km/h
Spd
kts
Gust
kts
21/11:30pm 9.1 4.5 8.0 93 0.6 WNW 22 30 12 16 1018.6 1017.6 10.6
21/11:00pm 9.5 5.0 8.6 94 0.5 WNW 22 32 12 17 1018.8 1017.8 10.6
21/10:30pm 9.5 5.6 8.7 95 0.4 NW 19 28 10 15 1018.9 1017.9 10.6
21/10:00pm 9.7 5.8 8.6 93 0.6 WNW 19 22 10 12 1019.2 1018.2 10.6
21/09:30pm 9.8 6.0 8.9 94 0.5 WNW 19 24 10 13 1019.3 1018.3 10.6
21/09:00pm 9.9 6.5 9.1 95 0.4 WNW 17 24 9 13 1019.3 1018.3 10.6
21/08:30pm 9.9 7.2 9.1 95 0.4 NW 13 20 7 11 1019.3 1018.3 10.6
21/08:00pm 9.8 6.3 8.9 94 0.5 WNW 17 20 9 11 1019.2 1018.2 10.6
21/07:30pm 10.1 7.5 9.3 95 0.4 WNW 13 19 7 10 1019.3 1018.3 10.4
21/07:00pm 10.1 7.9 9.2 94 0.5 WNW 11 15 6 8 1019.5 1018.5 10.4
21/06:59pm 10.1 7.9 9.2 94 0.5 WNW 11 15 6 8 1019.5 1018.5 10.4
21/06:37pm 10.2 7.6 9.3 94 0.5 WNW 13 17 7 9 1019.3 1018.3 10.4
21/06:30pm 10.3 7.7 9.4 94 0.5 WNW 13 15 7 8 1019.2 1018.2 10.4
21/06:00pm 10.4 9.0 9.5 94 0.5 WNW 7 9 4 5 1018.7 1017.7 10.4
21/05:30pm 10.5 7.2 9.6 94 0.5 W 17 20 9 11 1019.1 1018.1 10.4
21/05:08pm 10.6 6.8 9.7 94 0.5 WNW 20 28 11 15 1018.8 1017.8 10.4
21/05:00pm 10.7 7.1 9.8 94 0.5 WNW 19 24 10 13 1019.2 1018.2 10.4
21/04:42pm 10.8 7.6 9.9 94 0.5 WNW 17 24 9 13 1018.8 1017.8 10.0
21/04:30pm 10.9 7.7 10.0 94 0.5 NW 17 24 9 13 1018.8 1017.8 9.6
21/04:00pm 11.1 8.0 10.2 94 0.5 WNW 17 22 9 12 1018.9 1017.9 9.6
21/03:30pm 11.1 8.7 10.2 94 0.5 NNW 13 17 7 9 1018.3 1017.3 9.6
21/03:00pm 11.3 8.2 10.4 94 0.5 WNW 17 20 9 11 1018.9 1017.9 9.4
21/02:30pm 11.1 9.1 10.3 95 0.4 NW 11 13 6 7 1018.8 1017.8 9.2
21/02:00pm 11.0 7.8 9.9 93 0.6 W 17 22 9 12 1019.2 1018.2 8.4
21/01:30pm 11.4 8.3 10.3 93 0.6 WNW 17 22 9 12 1019.1 1018.1 7.4
21/01:10pm 11.5 7.9 10.4 93 0.6 WNW 20 26 11 14 1019.8 1018.8 6.8
21/01:00pm 11.5 7.4 10.1 91 0.8 WNW 22 28 12 15 1019.9 1019.0 6.6
21/12:30pm 11.8 9.5 10.5 92 0.7 WNW 13 19 7 10 1019.8 1018.8 6.0
21/12:00pm 12.0 10.5 10.7 92 0.7 N 9 11 5 6 1019.6 1018.6 5.8
21/11:30am 11.9 10.5 10.8 93 0.6 NE 9 13 5 7 1019.7 1018.7 5.8
21/11:00am 11.1 10.4 10.0 93 0.6 NNE 4 7 2 4 1021.3 1020.3 5.4
21/10:30am 10.7 9.9 9.6 93 0.6 NE 4 9 2 5 1021.6 1020.7 4.0
21/10:00am 10.9 10.1 9.7 92 0.6 ESE 4 7 2 4 1021.7 1020.8 2.2
21/09:30am 10.9 10.5 9.7 92 0.6 S 2 6 1 3 1022.0 1021.1 1.2
21/09:00am 10.9 10.6 10.0 94 0.5 S 2 7 1 4 1021.8 1020.9 -
21/08:30am 10.8 10.4 9.9 94 0.5 SSW 2 7 1 4 1021.7 1020.8 -
21/08:15am 10.8 10.4 9.9 94 0.5 SW 2 7 1 4 1022.0 1021.1 -
21/08:00am 10.8 9.5 9.9 94 0.5 W 7 15 4 8 1021.7 1020.8 -
21/07:58am 10.8 9.1 9.9 94 0.5 WNW 9 15 5 8 1021.7 1020.8 -
21/07:30am 10.9 9.8 10.0 94 0.5 S 6 7 3 4 1021.5 1020.5 -
21/07:00am 10.9 9.8 10.0 94 0.5 SW 6 9 3 5 1021.4 1020.4 -
21/06:30am 10.9 9.3 10.1 95 0.4 SSW 9 11 5 6 1021.4 1020.4 -
21/06:00am 11.0 9.4 10.1 94 0.5 SW 9 11 5 6 1021.4 1020.4 -
21/05:30am 11.0 9.4 10.1 94 0.5 SW 9 15 5 8 1020.6 1019.6 -
21/05:00am 11.0 9.9 10.1 94 0.5 ENE 6 7 3 4 1020.2 1019.2 -
21/04:30am 11.0 9.4 10.1 94 0.5 SE 9 11 5 6 1020.0 1019.1 -
21/04:00am 11.1 10.4 10.2 94 0.5 ESE 4 7 2 4 1020.3 1019.3 -
21/03:30am 10.8 9.1 9.9 94 0.5 ESE 9 11 5 6 1020.2 1019.2 -
21/03:00am 10.3 8.5 9.4 94 0.5 E 9 11 5 6 1020.3 1019.3 0.2
21/02:30am 10.4 9.0 9.5 94 0.5 ESE 7 9 4 5 1020.6 1019.6 -
21/02:00am 10.5 9.0 9.3 92 0.6 ESE 7 9 4 5 1020.6 1019.6 -
21/01:30am 10.7 8.9 9.5 92 0.6 SE 9 9 5 5 1020.8 1019.9 -
21/01:00am 11.6 10.5 10.5 93 0.6 SSE 7 7 4 4 1021.4 1020.4 -
21/12:30am 12.0 11.2 11.1 94 0.5 WSW 6 7 3 4 1021.6 1020.7 -
21/12:00am 12.1 10.8 11.2 94 0.5 WSW 9 11 5 6 1021.8 1020.9 -
 
Date/Time
EST
Temp
°C
App
Temp
°C
Dew
Point
Rel
Hum
%
Delta-T
°C
Wind Press
QNH
hPa
Press
MSL
hPa
Rain
since 9 am
mm
Dir
 
Spd
km/h
Gust
km/h
Spd
kts
Gust
kts
20/11:30pm 11.2 10.1 10.7 97 0.3 WSW 7 9 4 5 1021.8 1020.9 -
20/11:00pm 9.8 8.3 9.2 96 0.3 SW 7 11 4 6 1021.8 1020.9 -
20/10:30pm 9.9 8.7 9.4 97 0.3 SW 6 9 3 5 1021.8 1020.9 -
20/10:13pm 7.9 6.0 6.8 93 0.5 SW 6 7 3 4 1021.7 1020.8 -
20/10:00pm 9.4 9.1 8.8 96 0.3 CALM 0 0 0 0 1021.8 1020.9 -
20/09:58pm 9.4 9.1 8.8 96 0.3 CALM 0 0 0 0 1021.8 1020.9 -
20/09:41pm 9.2 8.9 8.6 96 0.3 CALM 0 0 0 0 1021.8 1020.9 -
20/09:30pm 8.4 7.8 7.3 93 0.5 CALM 0 0 0 0 1021.9 1021.0 -
20/09:23pm 9.3 9.0 8.7 96 0.3 CALM 0 0 0 0 1021.9 1021.0 -
20/09:00pm 9.2 8.1 8.6 96 0.3 NW 4 6 2 3 1021.9 1021.0 0.0
20/08:30pm 8.7 8.1 7.2 90 0.7 CALM 0 2 0 1 1021.9 1021.0 -
20/08:00pm 10.0 8.5 8.3 89 0.9 NW 6 7 3 4 1022.0 1021.1 -
20/07:30pm 11.1 10.0 9.9 92 0.6 N 6 7 3 4 1021.7 1020.8 -
20/07:00pm 10.7 9.3 9.5 92 0.6 N 7 9 4 5 1021.5 1020.5 -
20/06:30pm 11.3 10.0 9.2 87 1.1 NW 6 7 3 4 1021.4 1020.4 -
20/06:00pm 11.7 9.4 8.9 83 1.5 NW 11 11 6 6 1021.5 1020.5 -
20/05:30pm 14.4 13.0 10.8 79 2.0 N 9 11 5 6 1020.7 1019.7 -

Other Formats:

Comma delimited format used in spreadsheet applications
http://www.bom.gov.au/fwo/IDN60801/IDN60801.94588.axf

JavaScript Object Notation format (JSON) in row-major order
http://www.bom.gov.au/fwo/IDN60801/IDN60801.94588.json